Time;durP1;ratioP1;P1;durP2;ratioP2;P2;SDS_P1;SDS_P2;PMS_P1;PMS_P2;Temp;Humidity;BMP_temperature;BMP_pressure;BME280_temperature;BME280_humidity;BME280_pressure;Samples;Min_cycle;Max_cycle;Signal;HPM_P1;HPM_P2
2022/12/03 00:01:58;;;;;;;19.40;12.23;;;5.80;99.90;;;;;;1904188;75;21190;-88
2022/12/03 00:04:49;;;;;;;18.65;12.07;;;5.70;99.90;;;;;;1904110;75;21122;-87
2022/12/03 00:07:41;;;;;;;15.38;10.80;;;5.60;99.90;;;;;;1914656;74;21114;-87
2022/12/03 00:10:32;;;;;;;18.37;12.03;;;5.60;99.90;;;;;;1912533;74;21148;-87
2022/12/03 00:13:24;;;;;;;20.20;12.35;;;5.60;99.90;;;;;;1904547;75;21159;-87
2022/12/03 00:16:15;;;;;;;17.67;12.45;;;5.60;99.90;;;;;;1851454;77;21103;-88
2022/12/03 00:19:07;;;;;;;18.55;12.33;;;5.50;99.90;;;;;;1931666;74;21180;-87
2022/12/03 00:21:59;;;;;;;17.98;12.30;;;5.50;99.90;;;;;;1910674;74;21071;-87
2022/12/03 00:24:52;;;;;;;16.37;11.63;;;5.60;99.90;;;;;;1904147;75;21075;-87
2022/12/03 00:27:44;;;;;;;16.87;11.38;;;5.50;99.90;;;;;;1921566;74;21102;-87
2022/12/03 00:30:35;;;;;;;18.12;12.18;;;5.50;99.90;;;;;;1904318;75;21091;-87
2022/12/03 00:33:27;;;;;;;17.10;12.35;;;5.50;99.90;;;;;;1903949;75;21179;-87
2022/12/03 00:36:20;;;;;;;17.87;12.75;;;5.50;99.90;;;;;;1904233;75;21062;-88
2022/12/03 00:39:11;;;;;;;20.02;13.25;;;5.50;99.90;;;;;;1903894;75;21082;-87
2022/12/03 00:42:04;;;;;;;16.65;11.95;;;5.50;99.90;;;;;;1903901;75;21104;-88
2022/12/03 00:44:55;;;;;;;19.62;12.45;;;5.40;99.90;;;;;;1903638;75;21352;-87
2022/12/03 00:47:47;;;;;;;18.82;11.12;;;5.40;99.90;;;;;;1904063;75;21152;-87
2022/12/03 00:50:39;;;;;;;16.75;11.10;;;5.40;99.90;;;;;;1905531;74;21109;-87
2022/12/03 00:53:30;;;;;;;15.15;11.03;;;5.40;99.90;;;;;;1852899;76;21114;-87
2022/12/03 00:56:21;;;;;;;15.80;11.25;;;5.40;99.90;;;;;;1850849;76;21163;-86
2022/12/03 00:59:13;;;;;;;18.02;11.63;;;5.30;99.90;;;;;;1910314;74;21153;-87
2022/12/03 01:02:04;;;;;;;15.48;10.63;;;5.30;99.90;;;;;;1908518;74;21116;-86
2022/12/03 01:04:56;;;;;;;19.52;11.63;;;5.20;99.90;;;;;;1908015;74;21158;-87
2022/12/03 01:10:31;;;;;;;17.52;11.78;;;5.30;99.90;;;;;;1938205;72;22178;-88
2022/12/03 01:13:23;;;;;;;15.50;11.03;;;5.30;99.90;;;;;;1905501;75;21172;-87
2022/12/03 01:16:14;;;;;;;17.62;11.50;;;5.20;99.90;;;;;;1887518;75;21143;-87
2022/12/03 01:19:07;;;;;;;16.75;11.30;;;5.30;99.90;;;;;;1872004;76;21106;-87
2022/12/03 01:21:58;;;;;;;15.32;10.98;;;5.30;99.90;;;;;;1872302;75;21102;-86
2022/12/03 01:24:50;;;;;;;15.90;11.00;;;5.20;99.90;;;;;;1875366;75;21180;-87
2022/12/03 01:27:42;;;;;;;15.40;10.78;;;5.30;99.90;;;;;;1887654;75;21163;-88
2022/12/03 01:32:15;;;;;;;16.17;10.90;;;5.20;99.90;;;;;;1884859;75;21056;-87
2022/12/03 01:33:27;;;;;;;13.98;10.65;;;5.10;99.90;;;;;;1895302;75;21107;-86
2022/12/03 01:36:18;;;;;;;16.00;10.55;;;5.00;99.90;;;;;;1882994;75;21090;-86
2022/12/03 01:39:10;;;;;;;15.10;10.72;;;4.90;99.90;;;;;;1886238;75;21102;-86
2022/12/03 01:42:03;;;;;;;16.77;10.82;;;5.00;99.90;;;;;;1890308;75;21137;-86
2022/12/03 01:44:57;;;;;;;16.52;10.15;;;4.90;99.90;;;;;;1881237;75;21106;-86
2022/12/03 01:47:49;;;;;;;17.42;11.05;;;4.90;99.90;;;;;;1900678;75;21060;-86
2022/12/03 01:50:40;;;;;;;18.15;11.10;;;4.90;99.90;;;;;;1893052;75;21157;-87
2022/12/03 01:53:32;;;;;;;15.95;10.38;;;4.80;99.90;;;;;;1887523;75;21155;-86
2022/12/03 01:56:24;;;;;;;14.13;9.93;;;4.90;99.90;;;;;;1883225;75;21127;-89
2022/12/03 01:59:18;;;;;;;13.83;9.80;;;5.00;99.90;;;;;;1878340;75;21055;-86
2022/12/03 02:02:15;;;;;;;13.30;9.88;;;4.90;99.90;;;;;;1881434;75;21157;-87
2022/12/03 02:05:17;;;;;;;13.78;9.95;;;4.90;99.90;;;;;;1904072;75;21615;-87
2022/12/03 02:08:28;;;;;;;13.10;9.53;;;4.90;99.90;;;;;;1889864;75;21129;-87
2022/12/03 02:14:05;;;;;;;15.23;9.43;;;4.90;99.90;;;;;;1950609;72;22252;-88
2022/12/03 02:16:56;;;;;;;13.72;10.43;;;4.80;99.90;;;;;;1894396;75;21107;-85
2022/12/03 02:19:49;;;;;;;12.95;9.25;;;4.80;99.90;;;;;;1890821;75;21114;-85
2022/12/03 02:22:45;;;;;;;14.40;10.32;;;4.70;99.90;;;;;;1885154;75;21098;-86
2022/12/03 02:25:38;;;;;;;14.28;9.85;;;4.70;99.90;;;;;;1874219;75;21184;-87
2022/12/03 02:28:29;;;;;;;16.30;10.00;;;4.70;99.90;;;;;;1894187;75;21106;-86
2022/12/03 02:31:22;;;;;;;13.13;10.23;;;4.70;99.90;;;;;;1893341;75;21114;-86
2022/12/03 02:34:33;;;;;;;14.43;10.08;;;4.70;99.90;;;;;;1888828;75;21099;-86
2022/12/03 02:37:31;;;;;;;14.90;9.88;;;4.70;99.90;;;;;;1888587;75;21098;-86
2022/12/03 02:40:25;;;;;;;13.98;9.73;;;4.60;99.90;;;;;;1884004;75;21102;-86
2022/12/03 02:43:19;;;;;;;14.68;10.10;;;4.60;99.90;;;;;;1883460;75;21188;-87
2022/12/03 02:46:11;;;;;;;14.35;10.13;;;4.60;99.90;;;;;;1882830;75;21098;-86
2022/12/03 02:49:04;;;;;;;14.00;10.03;;;4.60;99.90;;;;;;1885791;75;21111;-87
2022/12/03 02:51:55;;;;;;;13.83;9.50;;;4.60;99.90;;;;;;1887082;75;21183;-86
2022/12/03 02:54:47;;;;;;;14.45;9.68;;;4.60;99.90;;;;;;1895650;75;21103;-86
2022/12/03 02:57:41;;;;;;;13.78;9.30;;;4.60;99.90;;;;;;1894375;75;21152;-86
2022/12/03 03:00:32;;;;;;;15.65;10.08;;;4.70;99.90;;;;;;1872587;76;21119;-85
2022/12/03 03:03:29;;;;;;;13.03;9.40;;;4.60;99.90;;;;;;1887855;75;21130;-86
2022/12/03 03:06:21;;;;;;;13.55;9.95;;;4.60;99.90;;;;;;1883388;75;21044;-87
2022/12/03 03:09:13;;;;;;;14.35;10.30;;;4.60;99.90;;;;;;1882160;75;21174;-86
2022/12/03 03:12:05;;;;;;;14.45;9.90;;;4.60;99.90;;;;;;1880456;75;21147;-86
2022/12/03 03:14:57;;;;;;;13.45;9.55;;;4.60;99.90;;;;;;1872797;75;21197;-85
2022/12/03 03:17:49;;;;;;;14.43;9.18;;;4.60;99.90;;;;;;1886326;75;21091;-87
2022/12/03 03:20:41;;;;;;;14.83;10.13;;;4.50;99.90;;;;;;1874441;75;21092;-87
2022/12/03 03:23:32;;;;;;;13.22;9.70;;;4.60;99.90;;;;;;1875512;75;21155;-86
2022/12/03 03:26:23;;;;;;;14.65;10.25;;;4.60;99.90;;;;;;1884033;75;21102;-86
2022/12/03 03:29:15;;;;;;;14.25;10.20;;;4.60;99.90;;;;;;1886536;75;21108;-85
2022/12/03 03:32:07;;;;;;;16.52;10.75;;;4.60;99.90;;;;;;1894808;75;22138;-86
2022/12/03 03:34:58;;;;;;;14.50;9.68;;;4.70;99.90;;;;;;1893830;75;21164;-86
2022/12/03 03:37:50;;;;;;;15.08;10.13;;;4.70;99.90;;;;;;1892782;75;21198;-85
2022/12/03 03:40:42;;;;;;;13.90;9.85;;;4.60;99.90;;;;;;1888722;75;21145;-87
2022/12/03 03:43:35;;;;;;;13.98;9.95;;;4.60;99.90;;;;;;1882737;75;21167;-86
2022/12/03 03:46:28;;;;;;;14.80;9.23;;;4.60;99.90;;;;;;1876193;75;21126;-85
2022/12/03 03:49:20;;;;;;;16.52;10.43;;;4.60;99.90;;;;;;1893322;75;21048;-85
2022/12/03 03:52:12;;;;;;;13.78;9.68;;;4.60;99.90;;;;;;1872017;77;21103;-85
2022/12/03 03:55:06;;;;;;;14.80;9.93;;;4.60;99.90;;;;;;1885712;75;21161;-86
2022/12/03 03:57:58;;;;;;;15.78;10.28;;;4.70;99.90;;;;;;1882611;75;21155;-86
2022/12/03 04:00:50;;;;;;;14.45;9.40;;;4.70;99.90;;;;;;1877252;75;21058;-86
2022/12/03 04:03:42;;;;;;;14.03;9.95;;;4.70;99.90;;;;;;1892750;75;21186;-85
2022/12/03 04:09:20;;;;;;;14.53;8.90;;;4.70;99.90;;;;;;1965876;72;22142;-86
2022/12/03 04:15:29;;;;;;;16.62;12.93;;;4.70;99.90;;;;;;1917266;75;21356;-85
2022/12/03 04:24:48;;;;;;;13.80;9.73;;;4.80;99.90;;;;;;1938500;73;21168;-85
2022/12/03 04:36:38;;;;;;;14.78;10.03;;;4.90;99.90;;;;;;1940045;73;21106;-85
2022/12/03 04:39:30;;;;;;;14.45;9.73;;;4.90;99.90;;;;;;1858614;76;21684;-86
2022/12/03 04:42:21;;;;;;;14.25;10.38;;;4.90;99.90;;;;;;1933542;73;21144;-84
2022/12/03 04:45:13;;;;;;;13.43;9.48;;;5.00;99.90;;;;;;1916682;75;21098;-85
2022/12/03 04:48:05;;;;;;;15.45;10.53;;;5.10;99.90;;;;;;1917269;75;21087;-85
2022/12/03 04:50:56;;;;;;;14.55;10.05;;;5.00;99.90;;;;;;1917344;75;21101;-85
2022/12/03 04:53:48;;;;;;;14.25;10.63;;;5.00;99.90;;;;;;1917202;75;21627;-85
2022/12/03 04:56:39;;;;;;;11.18;8.95;;;4.90;99.90;;;;;;1930260;73;21102;-86
2022/12/03 05:02:12;;;;;;;12.93;9.15;;;4.90;99.90;;;;;;1947661;72;22174;-86
2022/12/03 05:05:04;;;;;;;15.50;9.20;;;4.90;99.90;;;;;;1917252;75;21099;-85
2022/12/03 05:07:56;;;;;;;12.43;9.15;;;4.80;99.90;;;;;;1896178;75;21157;-86
2022/12/03 05:10:47;;;;;;;13.53;9.00;;;4.80;99.90;;;;;;1909898;75;21177;-84
2022/12/03 05:13:39;;;;;;;14.90;9.58;;;4.90;99.90;;;;;;1906296;75;21192;-86
2022/12/03 05:16:32;;;;;;;13.15;9.33;;;4.80;99.90;;;;;;1903103;75;21164;-86
2022/12/03 05:20:40;;;;;;;13.80;9.30;;;4.90;99.90;;;;;;1907030;74;21102;-86
2022/12/03 05:22:19;;;;;;;13.75;9.13;;;4.90;99.90;;;;;;1906324;75;21123;-85
2022/12/03 05:25:11;;;;;;;11.15;8.75;;;4.80;99.90;;;;;;1906438;75;21055;-86
2022/12/03 05:28:02;;;;;;;13.20;9.25;;;4.80;99.90;;;;;;1904443;75;21418;-86
2022/12/03 05:30:54;;;;;;;13.08;9.50;;;4.90;99.90;;;;;;1899476;75;21126;-86
2022/12/03 05:33:45;;;;;;;15.13;10.00;;;4.80;99.90;;;;;;1894892;75;21147;-85
2022/12/03 05:36:37;;;;;;;14.63;10.38;;;4.80;99.90;;;;;;1890418;75;21104;-85
2022/12/03 05:39:29;;;;;;;14.80;9.93;;;4.90;99.90;;;;;;1905562;75;21143;-85
2022/12/03 05:45:32;;;;;;;16.97;9.30;;;4.90;99.90;;;;;;1899595;75;21146;-86
2022/12/03 05:48:23;;;;;;;12.63;9.23;;;4.90;99.90;;;;;;1894399;75;21103;-85
2022/12/03 05:51:15;;;;;;;13.22;9.15;;;4.90;99.90;;;;;;1912423;75;21133;-87
2022/12/03 05:54:07;;;;;;;15.68;10.00;;;4.90;99.90;;;;;;1906244;75;21071;-85
2022/12/03 05:56:58;;;;;;;14.43;9.90;;;4.90;99.90;;;;;;1900811;75;21087;-85
2022/12/03 05:59:50;;;;;;;15.53;9.75;;;4.90;99.90;;;;;;1895943;75;21122;-85
2022/12/03 06:02:42;;;;;;;14.98;9.85;;;4.90;99.90;;;;;;1919204;74;21118;-85
2022/12/03 06:05:34;;;;;;;14.85;10.32;;;4.90;99.90;;;;;;1901866;74;21097;-86
2022/12/03 06:08:26;;;;;;;15.80;10.03;;;4.90;99.90;;;;;;1933041;74;21066;-85
2022/12/03 06:11:18;;;;;;;15.18;10.28;;;4.90;99.90;;;;;;1913513;74;21191;-85
2022/12/03 06:14:10;;;;;;;16.20;11.18;;;4.90;99.90;;;;;;1923584;74;21094;-85
2022/12/03 06:17:03;;;;;;;14.68;10.18;;;4.80;99.90;;;;;;1862469;76;21126;-85
2022/12/03 06:19:55;;;;;;;12.88;9.83;;;4.80;99.90;;;;;;1855894;77;21133;-85
2022/12/03 06:22:46;;;;;;;13.20;9.98;;;4.80;99.90;;;;;;1914712;74;21086;-86
2022/12/03 06:25:38;;;;;;;14.83;10.30;;;4.80;99.90;;;;;;1910469;74;21134;-86
2022/12/03 06:28:29;;;;;;;15.30;10.63;;;4.90;99.90;;;;;;1910036;74;21114;-85
2022/12/03 06:31:21;;;;;;;14.33;10.20;;;4.80;99.90;;;;;;1932430;74;21149;-85
2022/12/03 06:34:15;;;;;;;16.02;10.58;;;4.80;99.90;;;;;;1915366;74;21545;-85
2022/12/03 06:37:06;;;;;;;15.48;10.48;;;4.90;99.90;;;;;;1868050;76;21090;-85
2022/12/03 06:39:58;;;;;;;15.55;10.10;;;4.80;99.90;;;;;;1902590;74;21129;-86
2022/12/03 06:42:49;;;;;;;14.87;9.90;;;4.90;99.90;;;;;;1921375;74;21083;-85
2022/12/03 06:45:41;;;;;;;13.85;10.40;;;4.90;99.90;;;;;;1917656;74;21059;-85
2022/12/03 06:48:36;;;;;;;14.47;10.35;;;4.90;99.90;;;;;;1918703;74;21424;-79
2022/12/03 06:51:29;;;;;;;16.50;10.15;;;4.90;99.90;;;;;;1921473;74;21175;-79
2022/12/03 06:54:20;;;;;;;13.18;9.40;;;4.80;99.90;;;;;;1882230;76;21091;-80
2022/12/03 06:57:12;;;;;;;13.75;9.58;;;4.80;99.90;;;;;;1869046;76;21120;-79
2022/12/03 07:00:07;;;;;;;13.40;9.83;;;4.80;99.90;;;;;;1916988;74;21109;-82
2022/12/03 07:02:58;;;;;;;13.45;9.38;;;4.80;99.90;;;;;;1918441;74;21188;-79
2022/12/03 07:05:50;;;;;;;15.63;9.80;;;4.80;99.90;;;;;;1888899;75;21138;-78
2022/12/03 07:08:41;;;;;;;13.83;9.88;;;4.80;99.90;;;;;;1905491;75;21095;-79
2022/12/03 07:11:38;;;;;;;15.10;10.15;;;4.80;99.90;;;;;;1883398;76;21086;-77
2022/12/03 07:14:26;;;;;;;15.43;10.00;;;4.70;99.90;;;;;;1871325;75;21236;-79
2022/12/03 07:17:17;;;;;;;15.88;9.85;;;4.70;99.90;;;;;;1878128;75;21135;-80
2022/12/03 07:20:11;;;;;;;14.15;9.50;;;4.80;99.90;;;;;;1894272;75;21086;-81
2022/12/03 07:23:02;;;;;;;15.55;10.05;;;4.80;99.90;;;;;;1896863;75;21147;-81
2022/12/03 07:25:54;;;;;;;14.78;9.90;;;4.80;99.90;;;;;;1884955;75;21180;-81
2022/12/03 07:28:47;;;;;;;15.20;10.48;;;4.90;99.90;;;;;;1881575;75;21052;-80
2022/12/03 07:31:38;;;;;;;15.63;10.05;;;4.90;99.90;;;;;;1894282;75;21102;-80
2022/12/03 07:34:29;;;;;;;14.90;10.35;;;5.00;99.90;;;;;;1896254;75;21109;-81
2022/12/03 07:37:21;;;;;;;16.85;10.60;;;5.00;99.90;;;;;;1898532;75;21102;-81
2022/12/03 07:40:14;;;;;;;13.50;10.50;;;5.00;99.90;;;;;;1882146;75;21165;-81
2022/12/03 07:43:06;;;;;;;16.00;10.53;;;5.00;99.90;;;;;;1888564;75;21117;-83
2022/12/03 07:45:57;;;;;;;15.63;11.00;;;5.10;99.90;;;;;;1905566;75;21099;-86
2022/12/03 07:48:53;;;;;;;16.35;11.43;;;5.10;99.90;;;;;;1883265;75;21107;-82
2022/12/03 07:51:52;;;;;;;16.25;10.88;;;5.10;99.90;;;;;;1895614;75;21187;-82
2022/12/03 07:54:38;;;;;;;16.55;12.03;;;5.20;99.90;;;;;;1895638;75;21164;-83
2022/12/03 07:57:30;;;;;;;20.57;11.33;;;5.20;99.90;;;;;;1887805;73;21183;-83
2022/12/03 08:00:24;;;;;;;14.10;10.70;;;5.20;99.90;;;;;;1889300;73;21070;-83
2022/12/03 08:03:15;;;;;;;14.60;10.72;;;5.20;99.90;;;;;;1883163;75;21217;-82
2022/12/03 08:06:08;;;;;;;15.58;10.93;;;5.20;99.90;;;;;;1883086;75;21094;-82
2022/12/03 08:09:02;;;;;;;13.78;10.40;;;5.30;99.90;;;;;;1844008;77;21139;-82
2022/12/03 08:11:54;;;;;;;15.95;10.63;;;5.20;99.90;;;;;;1894084;75;21135;-82
2022/12/03 08:14:45;;;;;;;16.52;10.53;;;5.30;99.90;;;;;;1922423;74;21172;-82
2022/12/03 08:17:48;;;;;;;15.32;10.45;;;5.30;99.90;;;;;;1883250;75;21201;-82
2022/12/03 08:20:43;;;;;;;15.80;10.68;;;5.30;99.90;;;;;;1880986;75;21128;-82
2022/12/03 08:23:41;;;;;;;15.43;11.10;;;5.30;99.90;;;;;;1886014;75;21108;-82
2022/12/03 08:26:35;;;;;;;16.02;11.03;;;5.30;99.90;;;;;;1896590;73;21156;-82
2022/12/03 08:29:28;;;;;;;16.50;11.22;;;5.30;99.90;;;;;;1907290;75;21602;-81
2022/12/03 08:32:19;;;;;;;15.23;10.80;;;5.40;99.90;;;;;;1894767;75;21086;-82
2022/12/03 08:35:14;;;;;;;17.40;11.60;;;5.50;99.90;;;;;;1893928;75;21096;-83
2022/12/03 08:38:11;;;;;;;15.83;11.73;;;5.50;99.90;;;;;;1914280;75;21597;-85
2022/12/03 08:43:57;;;;;;;16.17;11.00;;;5.50;99.90;;;;;;1942093;72;22791;-83
2022/12/03 08:47:02;;;;;;;17.92;12.13;;;5.60;99.90;;;;;;1896311;75;21647;-83
2022/12/03 08:50:02;;;;;;;15.60;11.10;;;5.70;99.90;;;;;;1907138;75;21665;-81
2022/12/03 08:53:02;;;;;;;16.17;11.85;;;5.70;99.90;;;;;;1906104;75;21153;-82
2022/12/03 08:56:02;;;;;;;21.82;11.48;;;5.70;99.90;;;;;;1906045;75;21155;-83
2022/12/03 08:59:02;;;;;;;18.75;11.55;;;5.70;99.90;;;;;;1883866;76;21576;-83
2022/12/03 09:01:55;;;;;;;19.25;12.13;;;5.80;99.90;;;;;;1894547;75;21094;-81
2022/12/03 09:04:51;;;;;;;15.65;11.43;;;5.80;99.90;;;;;;1896693;75;21195;-82
2022/12/03 09:07:43;;;;;;;16.77;11.20;;;5.80;99.90;;;;;;1886704;75;21094;-82
2022/12/03 09:10:35;;;;;;;16.35;11.95;;;5.80;99.90;;;;;;1905725;75;21165;-81
2022/12/03 09:13:27;;;;;;;16.62;11.65;;;5.70;99.90;;;;;;1904397;75;21138;-82
2022/12/03 09:16:18;;;;;;;16.30;11.38;;;5.70;99.90;;;;;;1883088;75;21114;-81
2022/12/03 09:19:10;;;;;;;18.35;12.28;;;5.70;99.90;;;;;;1905817;75;21129;-82
2022/12/03 09:22:02;;;;;;;17.07;11.48;;;5.80;99.90;;;;;;1888799;75;21088;-81
2022/12/03 09:24:53;;;;;;;18.42;12.07;;;6.00;99.90;;;;;;1916005;75;21172;-81
2022/12/03 09:27:45;;;;;;;17.62;12.20;;;6.00;99.90;;;;;;1899017;75;21098;-82
2022/12/03 09:30:37;;;;;;;17.52;11.68;;;6.10;99.90;;;;;;1883625;76;21103;-82
2022/12/03 09:33:31;;;;;;;19.45;12.95;;;6.10;99.90;;;;;;1883590;75;21566;-82
2022/12/03 09:36:21;;;;;;;16.45;11.68;;;6.10;99.90;;;;;;1847990;77;21159;-82
2022/12/03 09:41:54;;;;;;;15.05;11.30;;;6.30;99.90;;;;;;1939697;72;22315;-82
2022/12/03 09:44:46;;;;;;;17.15;12.28;;;6.40;99.90;;;;;;1916019;75;21129;-82
2022/12/03 09:47:39;;;;;;;16.57;12.00;;;6.40;99.90;;;;;;1878190;76;21220;-82
2022/12/03 09:50:31;;;;;;;18.30;12.90;;;6.50;99.90;;;;;;1916106;75;21127;-82
2022/12/03 09:53:25;;;;;;;21.10;12.98;;;6.50;99.90;;;;;;1860186;76;21122;-82
2022/12/03 09:59:02;;;;;;;18.50;12.80;;;6.70;99.90;;;;;;1950647;72;22197;-81
2022/12/03 10:02:04;;;;;;;16.35;11.80;;;6.70;99.90;;;;;;1829034;77;21573;-81
2022/12/03 10:04:59;;;;;;;17.92;11.68;;;6.70;99.90;;;;;;1899830;75;21122;-81
2022/12/03 10:08:06;;;;;;;18.35;12.15;;;6.70;99.90;;;;;;1904115;75;21610;-82
2022/12/03 10:11:06;;;;;;;17.17;12.30;;;6.70;99.90;;;;;;1905616;75;21102;-82
2022/12/03 10:14:04;;;;;;;18.53;12.77;;;6.80;99.90;;;;;;1906242;75;21063;-81
2022/12/03 10:16:59;;;;;;;17.25;12.55;;;6.80;99.90;;;;;;1900976;75;21122;-81
2022/12/03 10:19:52;;;;;;;15.60;11.93;;;6.80;99.90;;;;;;1897229;75;21121;-81
2022/12/03 10:22:47;;;;;;;16.65;12.65;;;6.90;99.90;;;;;;1897722;75;21168;-81
2022/12/03 10:28:35;;;;;;;17.17;13.22;;;7.10;99.90;;;;;;1947936;72;22118;-82
2022/12/03 10:31:32;;;;;;;18.42;13.72;;;7.20;99.90;;;;;;1827685;77;21103;-81
2022/12/03 10:34:30;;;;;;;;;;;7.20;99.90;;;;;;1905450;75;21248;-81
2022/12/03 10:37:22;;;;;;;21.73;14.05;;;7.30;99.90;;;;;;1898254;75;20190;-82
2022/12/03 10:40:14;;;;;;;21.48;14.33;;;7.30;99.90;;;;;;1885081;75;21166;-82
2022/12/03 10:46:15;;;;;;;19.52;14.28;;;7.30;99.90;;;;;;1974823;72;22333;-81
2022/12/03 10:49:13;;;;;;;19.25;13.80;;;7.40;99.90;;;;;;1916454;75;21113;-81
2022/12/03 10:52:06;;;;;;;20.25;13.85;;;7.50;99.90;;;;;;1926711;73;21525;-81
2022/12/03 10:54:58;;;;;;;20.05;14.28;;;7.50;99.90;;;;;;1928755;73;21082;-81
2022/12/03 10:57:49;;;;;;;19.12;14.23;;;7.50;99.90;;;;;;1927680;73;21111;-81
2022/12/03 11:00:41;;;;;;;19.27;14.50;;;7.50;99.90;;;;;;1926591;73;21505;-81
2022/12/03 11:03:34;;;;;;;19.60;13.28;;;7.60;99.90;;;;;;1917983;75;21153;-81
2022/12/03 11:06:26;;;;;;;23.10;14.50;;;7.60;99.90;;;;;;1916640;75;21638;-81
2022/12/03 11:09:21;;;;;;;18.55;13.98;;;7.60;99.90;;;;;;1916724;75;21070;-81
2022/12/03 11:15:07;;;;;;;23.60;14.25;;;7.70;99.90;;;;;;1953468;72;22502;-82
2022/12/03 11:17:59;;;;;;;21.00;14.45;;;7.70;99.90;;;;;;1883892;76;21098;-81
2022/12/03 11:21:08;;;;;;;19.87;14.07;;;7.80;99.90;;;;;;1916626;75;21216;-81
2022/12/03 11:24:07;;;;;;;19.02;13.75;;;7.90;99.90;;;;;;1894653;75;21110;-81
2022/12/03 11:27:18;;;;;;;18.20;13.75;;;7.90;99.90;;;;;;1894626;75;21255;-80
2022/12/03 11:30:12;;;;;;;20.77;14.30;;;7.90;99.90;;;;;;1894443;75;21152;-80
2022/12/03 11:33:04;;;;;;;20.70;13.93;;;7.90;99.90;;;;;;1894701;75;21109;-81
2022/12/03 11:36:18;;;;;;;17.73;13.28;;;7.70;99.90;;;;;;1898759;75;21160;-81
2022/12/03 11:39:10;;;;;;;17.45;14.03;;;7.70;99.90;;;;;;1901265;75;21253;-81
2022/12/03 11:42:32;;;;;;;19.90;14.33;;;7.70;99.90;;;;;;1895966;75;21099;-81
2022/12/03 11:48:14;;;;;;;21.15;16.87;;;7.70;99.90;;;;;;1929322;72;28185;-82
2022/12/03 11:51:13;;;;;;;22.55;14.87;;;7.70;99.90;;;;;;1847050;77;21128;-81
2022/12/03 11:54:05;;;;;;;18.42;13.62;;;7.80;99.90;;;;;;1828108;77;21636;-81
2022/12/03 11:56:57;;;;;;;20.97;14.63;;;7.80;99.90;;;;;;1900449;75;21142;-80
2022/12/03 12:00:00;;;;;;;17.62;13.85;;;7.80;99.90;;;;;;1895306;75;21091;-81
2022/12/03 12:02:55;;;;;;;18.15;14.28;;;7.90;99.90;;;;;;1894949;75;21164;-81
2022/12/03 12:05:46;;;;;;;17.37;13.78;;;8.00;99.90;;;;;;1894084;75;21138;-80
2022/12/03 12:08:41;;;;;;;20.72;14.68;;;8.00;99.90;;;;;;1916780;75;21184;-80
2022/12/03 12:11:34;;;;;;;18.37;14.20;;;7.90;99.90;;;;;;1899854;75;21126;-80
2022/12/03 12:14:27;;;;;;;17.92;14.30;;;7.90;99.90;;;;;;1895567;75;21135;-80
2022/12/03 12:20:28;;;;;;;20.48;15.13;;;7.90;99.90;;;;;;1933310;72;22252;-80
2022/12/03 12:23:28;;;;;;;20.72;14.35;;;7.70;99.90;;;;;;1882140;75;21130;-81
2022/12/03 12:26:20;;;;;;;19.07;13.70;;;7.70;99.90;;;;;;1822940;78;21197;-81
2022/12/03 12:29:12;;;;;;;18.82;14.13;;;7.70;99.90;;;;;;1885881;75;21104;-81
2022/12/03 12:32:13;;;;;;;20.70;14.60;;;7.70;99.90;;;;;;1882665;75;21581;-80
2022/12/03 12:35:09;;;;;;;17.95;13.50;;;7.80;99.90;;;;;;1876705;75;21129;-81
2022/12/03 12:38:05;;;;;;;19.42;14.47;;;7.70;99.90;;;;;;1836138;78;21188;-81
2022/12/03 12:40:56;;;;;;;20.15;14.10;;;7.70;99.90;;;;;;1885440;75;21158;-81
2022/12/03 12:43:47;;;;;;;19.87;14.30;;;7.60;99.90;;;;;;1885947;75;21105;-81
2022/12/03 12:46:39;;;;;;;21.45;14.87;;;7.70;99.90;;;;;;1876535;75;21095;-81
2022/12/03 12:49:32;;;;;;;18.12;13.40;;;7.70;99.90;;;;;;1893528;75;21135;-80
2022/12/03 12:52:24;;;;;;;23.18;15.18;;;7.80;99.90;;;;;;1891937;75;21110;-80
2022/12/03 12:55:16;;;;;;;20.30;14.28;;;7.70;99.90;;;;;;1889022;75;21106;-80
2022/12/03 12:58:13;;;;;;;19.67;13.32;;;7.70;99.90;;;;;;1893706;75;21103;-81
2022/12/03 13:03:50;;;;;;;20.50;12.90;;;7.80;99.90;;;;;;1957387;72;22170;-81
2022/12/03 13:06:42;;;;;;;16.15;12.45;;;7.90;99.90;;;;;;1883278;76;21137;-81
2022/12/03 13:09:34;;;;;;;18.87;13.40;;;7.80;99.90;;;;;;1895815;75;21168;-80
2022/12/03 13:12:25;;;;;;;20.68;14.68;;;7.80;99.90;;;;;;1909895;75;21091;-80
2022/12/03 13:15:36;;;;;;;17.62;13.75;;;7.80;99.90;;;;;;1905970;75;21674;-80
2022/12/03 13:18:33;;;;;;;19.92;14.98;;;7.80;99.90;;;;;;1906088;75;21123;-80
2022/12/03 13:21:27;;;;;;;20.40;14.78;;;7.80;99.90;;;;;;1902122;75;21090;-80
2022/12/03 13:24:30;;;;;;;22.73;14.87;;;7.80;99.90;;;;;;1897040;75;21449;-80
2022/12/03 13:27:28;;;;;;;17.73;13.32;;;7.80;99.90;;;;;;1894626;75;21051;-80
2022/12/03 13:30:20;;;;;;;17.82;13.55;;;7.80;99.90;;;;;;1888450;75;21630;-80
2022/12/03 13:33:14;;;;;;;17.48;13.32;;;7.80;99.90;;;;;;1905714;75;21143;-80
2022/12/03 13:36:13;;;;;;;18.95;13.83;;;7.80;99.90;;;;;;1902556;75;21647;-80
2022/12/03 13:39:14;;;;;;;17.77;13.60;;;7.80;99.90;;;;;;1900596;75;22167;-81
2022/12/03 13:45:33;;;;;;;18.35;13.30;;;7.80;99.90;;;;;;1897446;75;21094;-80
2022/12/03 13:48:27;;;;;;;18.40;13.18;;;7.90;99.90;;;;;;1905552;75;21168;-80
2022/12/03 13:54:01;;;;;;;15.83;12.73;;;7.90;99.90;;;;;;1952871;72;22175;-80
2022/12/03 13:56:53;;;;;;;18.95;14.05;;;7.90;99.90;;;;;;1927570;73;21118;-81
2022/12/03 13:59:44;;;;;;;19.67;13.28;;;7.90;99.90;;;;;;1916767;75;21565;-81
2022/12/03 14:02:36;;;;;;;17.67;13.45;;;7.80;99.90;;;;;;1858482;76;21640;-81
2022/12/03 14:05:27;;;;;;;18.75;14.03;;;7.80;99.90;;;;;;1916730;75;21107;-80
2022/12/03 14:08:19;;;;;;;17.48;13.75;;;7.90;99.90;;;;;;1916917;75;21176;-82
2022/12/03 14:12:24;;;;;;;18.50;14.50;;;7.80;99.90;;;;;;1916340;75;21130;-81
2022/12/03 14:14:04;;;;;;;21.00;14.30;;;7.90;99.90;;;;;;1915962;75;21094;-80
2022/12/03 14:16:56;;;;;;;19.10;13.78;;;7.90;99.90;;;;;;1916329;75;21582;-80
2022/12/03 14:19:49;;;;;;;20.70;15.38;;;7.90;99.90;;;;;;1936584;73;21529;-81
2022/12/03 14:22:44;;;;;;;19.55;14.50;;;8.00;99.90;;;;;;1916750;75;21095;-80
2022/12/03 14:25:38;;;;;;;17.55;13.60;;;8.00;99.90;;;;;;1916684;75;21152;-80
2022/12/03 14:28:29;;;;;;;16.57;13.43;;;8.10;99.90;;;;;;1917019;75;21624;-80
2022/12/03 14:31:21;;;;;;;20.60;14.47;;;8.00;99.90;;;;;;1917132;73;21621;-80
2022/12/03 14:34:12;;;;;;;17.87;14.40;;;8.00;99.90;;;;;;1932799;73;21202;-80
2022/12/03 14:37:05;;;;;;;17.45;13.83;;;7.90;99.90;;;;;;1916201;75;21099;-80
2022/12/03 14:39:57;;;;;;;19.37;13.50;;;7.90;99.90;;;;;;1923434;73;21092;-80
2022/12/03 14:42:49;;;;;;;17.85;13.53;;;7.90;99.90;;;;;;1927503;73;21109;-81
2022/12/03 14:45:40;;;;;;;17.60;13.15;;;7.90;99.90;;;;;;1931350;73;21172;-80
2022/12/03 14:51:13;;;;;;;18.48;13.10;;;7.90;99.90;;;;;;1946539;72;22205;-81
2022/12/03 14:54:05;;;;;;;19.05;14.07;;;7.90;99.90;;;;;;1846814;77;21121;-81
2022/12/03 14:56:56;;;;;;;16.25;12.93;;;7.90;99.90;;;;;;1883709;75;21086;-81
2022/12/03 14:59:48;;;;;;;16.97;13.30;;;7.90;99.90;;;;;;1897415;75;21130;-80
2022/12/03 15:02:40;;;;;;;20.08;13.62;;;7.90;99.90;;;;;;1894544;75;21086;-80
2022/12/03 15:05:31;;;;;;;17.95;13.62;;;7.90;99.90;;;;;;1891561;75;21105;-80
2022/12/03 15:11:14;;;;;;;18.05;13.45;;;7.90;99.90;;;;;;1954972;72;22228;-81
2022/12/03 15:14:32;;;;;;;18.25;13.88;;;7.90;99.90;;;;;;1897714;75;21088;-81
2022/12/03 15:17:32;;;;;;;18.62;13.80;;;7.90;99.90;;;;;;1900736;75;21093;-81
2022/12/03 15:20:23;;;;;;;18.57;13.95;;;7.80;99.90;;;;;;1906050;75;21633;-80
2022/12/03 15:23:15;;;;;;;15.15;12.43;;;7.80;99.90;;;;;;1905551;75;21157;-82
2022/12/03 15:26:07;;;;;;;18.95;13.15;;;7.80;99.90;;;;;;1882916;75;21145;-81
2022/12/03 15:28:58;;;;;;;18.12;13.95;;;7.80;99.90;;;;;;1894976;75;21324;-81
2022/12/03 15:31:50;;;;;;;17.25;13.28;;;7.80;99.90;;;;;;1893818;75;21095;-81
2022/12/03 15:34:42;;;;;;;16.23;12.90;;;7.80;99.90;;;;;;1893035;75;21580;-81
2022/12/03 15:37:34;;;;;;;17.17;13.13;;;7.80;99.90;;;;;;1848088;77;21216;-80
2022/12/03 15:40:27;;;;;;;18.02;13.00;;;7.80;99.90;;;;;;1896281;75;21139;-80
2022/12/03 15:43:18;;;;;;;17.25;12.85;;;7.80;99.90;;;;;;1894620;75;21111;-81
2022/12/03 15:46:10;;;;;;;17.12;12.63;;;7.80;99.90;;;;;;1894363;75;21148;-83
2022/12/03 15:49:03;;;;;;;16.23;12.37;;;7.70;99.90;;;;;;1904790;75;21129;-81
2022/12/03 15:51:56;;;;;;;15.45;11.53;;;7.70;99.90;;;;;;1897780;75;21082;-81
2022/12/03 15:54:48;;;;;;;15.38;11.28;;;7.70;99.90;;;;;;1884849;75;21885;-81
2022/12/03 16:00:20;;;;;;;14.47;11.45;;;7.70;99.90;;;;;;1934014;72;22506;-81
2022/12/03 16:03:12;;;;;;;15.03;11.40;;;7.70;99.90;;;;;;1885896;75;21048;-81
2022/12/03 16:06:04;;;;;;;15.08;12.18;;;7.70;99.90;;;;;;1887621;74;21126;-80